Time;durP1;ratioP1;P1;durP2;ratioP2;P2;SDS_P1;SDS_P2;PMS_P1;PMS_P2;Temp;Humidity;BMP_temperature;BMP_pressure;BME280_temperature;BME280_humidity;BME280_pressure;Samples;Min_cycle;Max_cycle;Signal;HPM_P1;HPM_P2
2023/05/29 00:00:05;;;;;;;;;;;17.40;83.50;;;;;;4760064;29;20126;-77
2023/05/29 00:02:52;;;;;;;;;;;17.50;83.70;;;;;;4756987;29;19941;-77
2023/05/29 00:05:19;;;;;;;;;;;17.40;83.50;;;;;;4752359;29;19966;-77
2023/05/29 00:07:46;;;;;;;;;;;17.30;83.40;;;;;;4733370;29;20176;-77
2023/05/29 00:10:13;;;;;;;;;;;17.30;83.90;;;;;;4755329;29;22310;-77
2023/05/29 00:12:40;;;;;;;;;;;17.30;84.00;;;;;;4767283;29;19937;-77
2023/05/29 00:15:08;;;;;;;;;;;17.30;84.30;;;;;;4756578;29;20612;-77
2023/05/29 00:17:35;;;;;;;;;;;17.20;84.50;;;;;;4747915;29;19944;-77
2023/05/29 00:20:11;;;;;;;;;;;17.20;84.40;;;;;;4746674;29;19944;-77
2023/05/29 00:22:39;;;;;;;;;;;17.10;85.10;;;;;;4756057;29;20027;-78
2023/05/29 00:25:07;;;;;;;;;;;16.50;85.00;;;;;;4754445;29;19944;-78
2023/05/29 00:27:34;;;;;;;;;;;17.20;85.50;;;;;;4740791;29;19968;-78
2023/05/29 00:30:03;;;;;;;;;;;17.10;85.30;;;;;;4755968;29;20747;-78
2023/05/29 00:32:30;;;;;;;;;;;17.20;86.30;;;;;;4719473;29;20049;-78
2023/05/29 00:34:57;;;;;;;;;;;16.50;87.70;;;;;;4775285;29;19929;-78
2023/05/29 00:37:24;;;;;;;;;;;17.10;86.50;;;;;;4776162;29;20007;-78
2023/05/29 00:39:51;;;;;;;;;;;17.10;86.80;;;;;;4776227;29;19937;-77
2023/05/29 00:42:18;;;;;;;;;;;17.10;87.00;;;;;;4776237;29;19937;-77
2023/05/29 00:44:46;;;;;;;;;;;17.10;87.00;;;;;;4759064;29;19944;-77
2023/05/29 00:47:13;;;;;;;;;;;17.10;87.10;;;;;;4776951;29;19937;-77
2023/05/29 00:49:40;;;;;;;;;;;16.90;87.00;;;;;;4778766;29;20002;-77
2023/05/29 00:52:09;;;;;;;;;;;16.80;87.30;;;;;;4776911;29;19937;-77
2023/05/29 00:54:36;;;;;;;;;;;16.80;87.80;;;;;;4774018;29;19937;-78
2023/05/29 00:57:04;;;;;;;;;;;16.80;88.20;;;;;;4775325;29;21076;-79
2023/05/29 00:59:32;;;;;;;;;;;17.00;88.40;;;;;;4756154;29;19956;-78
2023/05/29 01:02:00;;;;;;;;;;;17.00;89.10;;;;;;4757263;29;19933;-78
2023/05/29 01:04:27;;;;;;;;;;;16.70;87.70;;;;;;4774970;29;19932;-77
2023/05/29 01:06:56;;;;;;;;;;;16.90;88.00;;;;;;4776778;29;20171;-77
2023/05/29 01:09:23;;;;;;;;;;;16.80;88.30;;;;;;4775965;29;22802;-78
2023/05/29 01:11:56;;;;;;;;;;;16.60;89.40;;;;;;4777740;29;19940;-77
2023/05/29 01:14:29;;;;;;;;;;;16.60;89.40;;;;;;4761345;29;20047;-78
2023/05/29 01:17:08;;;;;;;;;;;16.60;89.80;;;;;;4780106;29;20308;-77
2023/05/29 01:19:55;;;;;;;;;;;16.50;90.00;;;;;;4763682;29;19936;-77
2023/05/29 01:22:40;;;;;;;;;;;16.40;90.30;;;;;;4776316;29;19936;-77
2023/05/29 01:25:16;;;;;;;;;;;16.40;90.50;;;;;;4777828;29;19940;-77
2023/05/29 01:27:44;;;;;;;;;;;16.50;90.50;;;;;;4756050;29;20023;-77
2023/05/29 01:30:12;;;;;;;;;;;16.60;90.70;;;;;;4761810;29;20501;-77
2023/05/29 01:32:39;;;;;;;;;;;16.70;90.80;;;;;;4778224;29;19945;-78
2023/05/29 01:35:07;;;;;;;;;;;16.70;90.60;;;;;;4780208;29;19936;-78
2023/05/29 01:37:35;;;;;;;;;;;16.80;91.00;;;;;;4765419;29;19937;-78
2023/05/29 01:40:04;;;;;;;;;;;16.70;90.70;;;;;;4782836;29;20318;-77
2023/05/29 01:42:31;;;;;;;;;;;16.70;90.70;;;;;;4778474;29;19986;-78
2023/05/29 01:44:59;;;;;;;;;;;16.70;90.70;;;;;;4765259;29;19937;-78
2023/05/29 01:47:26;;;;;;;;;;;16.70;90.60;;;;;;4779860;29;19984;-78
2023/05/29 01:49:54;;;;;;;;;;;16.60;90.70;;;;;;4762189;29;19936;-78
2023/05/29 01:52:21;;;;;;;;;;;16.60;90.70;;;;;;4771796;29;19936;-78
2023/05/29 01:54:48;;;;;;;;;;;16.60;91.10;;;;;;4785150;29;20422;-78
2023/05/29 01:57:16;;;;;;;;;;;16.60;92.00;;;;;;4784140;29;20035;-78
2023/05/29 01:59:43;;;;;;;;;;;16.50;91.10;;;;;;4783871;29;19937;-78
2023/05/29 02:02:11;;;;;;;;;;;16.60;90.90;;;;;;4776406;29;19937;-77
2023/05/29 02:04:38;;;;;;;;;;;16.20;90.30;;;;;;4759049;29;20172;-77
2023/05/29 02:07:06;;;;;;;;;;;16.10;90.90;;;;;;4775521;29;19937;-77
2023/05/29 02:09:34;;;;;;;;;;;15.80;91.00;;;;;;4773024;29;19944;-77
2023/05/29 02:12:01;;;;;;;;;;;15.90;91.40;;;;;;4774247;29;19982;-77
2023/05/29 02:14:28;;;;;;;;;;;15.90;91.20;;;;;;4759899;29;20027;-77
2023/05/29 02:16:57;;;;;;;;;;;15.70;91.30;;;;;;4777869;29;20057;-77
2023/05/29 02:19:26;;;;;;;;;;;15.70;91.50;;;;;;4779826;29;20412;-77
2023/05/29 02:21:53;;;;;;;;;;;15.60;91.70;;;;;;4775230;29;20703;-77
2023/05/29 02:24:20;;;;;;;;;;;15.60;91.50;;;;;;4761077;29;19989;-76
2023/05/29 02:26:48;;;;;;;;;;;15.70;91.80;;;;;;4775867;29;19936;-77
2023/05/29 02:29:16;;;;;;;;;;;15.60;91.70;;;;;;4774714;29;20759;-77
2023/05/29 02:31:44;;;;;;;;;;;15.60;91.80;;;;;;4765045;29;20585;-77
2023/05/29 02:34:11;;;;;;;;;;;15.60;91.80;;;;;;4779898;29;20068;-76
2023/05/29 02:36:38;;;;;;;;;;;15.60;91.80;;;;;;4774038;29;20081;-77
2023/05/29 02:39:05;;;;;;;;;;;15.50;91.90;;;;;;4760933;29;19941;-77
2023/05/29 02:41:32;;;;;;;;;;;15.60;91.90;;;;;;4792798;29;20105;-77
2023/05/29 02:43:59;;;;;;;;;;;15.60;91.90;;;;;;4762442;29;20335;-77
2023/05/29 02:46:26;;;;;;;;;;;15.50;92.00;;;;;;4759665;29;19944;-77
2023/05/29 02:48:53;;;;;;;;;;;15.50;92.10;;;;;;4759811;29;20321;-77
2023/05/29 02:51:21;;;;;;;;;;;15.40;92.20;;;;;;4777269;29;19937;-77
2023/05/29 02:53:49;;;;;;;;;;;15.40;92.60;;;;;;4758017;29;20709;-77
2023/05/29 02:56:16;;;;;;;;;;;15.40;92.70;;;;;;4759115;29;19937;-77
2023/05/29 02:58:43;;;;;;;;;;;15.40;92.60;;;;;;4764093;29;19936;-77
2023/05/29 03:01:10;;;;;;;;;;;15.30;93.00;;;;;;4794549;29;19932;-77
2023/05/29 03:03:37;;;;;;;;;;;15.30;93.10;;;;;;4796628;29;20027;-77
2023/05/29 03:06:06;;;;;;;;;;;16.00;93.20;;;;;;4775516;29;20393;-77
2023/05/29 03:08:33;;;;;;;;;;;15.40;92.80;;;;;;4757092;29;19937;-77
2023/05/29 03:11:00;;;;;;;;;;;15.40;92.90;;;;;;4765703;29;19933;-77
2023/05/29 03:13:27;;;;;;;;;;;15.40;93.00;;;;;;4775867;29;20713;-77
2023/05/29 03:16:02;;;;;;;;;;;15.60;93.00;;;;;;4766503;29;19944;-77
2023/05/29 03:18:30;;;;;;;;;;;15.60;92.80;;;;;;4772988;29;19937;-77
2023/05/29 03:20:57;;;;;;;;;;;15.60;92.80;;;;;;4775103;29;19936;-78
2023/05/29 03:23:25;;;;;;;;;;;15.70;93.20;;;;;;4770038;29;19937;-77
2023/05/29 03:25:53;;;;;;;;;;;15.80;92.90;;;;;;4778304;29;19937;-77
2023/05/29 03:28:20;;;;;;;;;;;15.70;92.60;;;;;;4781103;29;19937;-77
2023/05/29 03:30:48;;;;;;;;;;;15.50;93.00;;;;;;4791301;29;20028;-77
2023/05/29 03:33:18;;;;;;;;;;;15.50;93.50;;;;;;4760888;29;19937;-77
2023/05/29 03:36:07;;;;;;;;;;;15.70;93.30;;;;;;4777758;29;20036;-77
2023/05/29 03:38:34;;;;;;;;;;;15.50;93.20;;;;;;4777291;29;19944;-77
2023/05/29 03:41:02;;;;;;;;;;;15.60;93.20;;;;;;4763356;29;19972;-78
2023/05/29 03:43:29;;;;;;;;;;;15.50;93.50;;;;;;4757680;29;19929;-77
2023/05/29 03:45:56;;;;;;;;;;;15.50;93.90;;;;;;4760187;29;19936;-78
2023/05/29 03:48:27;;;;;;;;;;;15.60;93.80;;;;;;4701636;29;2036332;-77
2023/05/29 03:50:54;;;;;;;;;;;15.60;93.50;;;;;;4758515;29;19943;-76
2023/05/29 03:53:28;;;;;;;;;;;15.80;93.50;;;;;;4760877;29;20498;-77
2023/05/29 03:55:56;;;;;;;;;;;15.70;93.40;;;;;;4759452;29;19986;-77
2023/05/29 03:58:23;;;;;;;;;;;15.90;93.50;;;;;;4761507;29;19937;-77
2023/05/29 04:00:51;;;;;;;;;;;15.80;93.20;;;;;;4742958;29;22295;-78
2023/05/29 04:03:20;;;;;;;;;;;15.90;93.00;;;;;;4776900;29;20694;-78
2023/05/29 04:05:47;;;;;;;;;;;16.00;93.00;;;;;;4759937;29;19936;-78
2023/05/29 04:08:14;;;;;;;;;;;16.10;92.70;;;;;;4775603;29;19937;-78
2023/05/29 04:10:43;;;;;;;;;;;16.20;92.50;;;;;;4781061;29;20049;-78
2023/05/29 04:13:10;;;;;;;;;;;16.10;92.70;;;;;;4762907;29;19936;-77
2023/05/29 04:15:38;;;;;;;;;;;16.20;92.60;;;;;;4777994;29;20805;-77
2023/05/29 04:18:05;;;;;;;;;;;16.40;92.80;;;;;;4760949;29;22610;-78
2023/05/29 04:20:33;;;;;;;;;;;16.30;92.50;;;;;;4761602;29;19944;-78
2023/05/29 04:23:00;;;;;;;;;;;16.30;92.50;;;;;;4755418;29;19936;-77
2023/05/29 04:25:27;;;;;;;;;;;16.20;92.50;;;;;;4740262;29;19955;-77
2023/05/29 04:27:54;;;;;;;;;;;16.30;92.20;;;;;;4777481;29;20408;-77
2023/05/29 04:30:22;;;;;;;;;;;16.40;92.10;;;;;;4762834;29;19972;-78
2023/05/29 04:32:49;;;;;;;;;;;16.50;92.20;;;;;;4779310;29;19941;-78
2023/05/29 04:35:16;;;;;;;;;;;16.60;91.90;;;;;;4779647;29;19936;-77
2023/05/29 04:37:52;;;;;;;;;;;16.70;91.90;;;;;;4761340;29;19943;-78
2023/05/29 04:40:20;;;;;;;;;;;16.80;92.10;;;;;;4762720;29;20409;-78
2023/05/29 04:42:47;;;;;;;;;;;16.90;91.60;;;;;;4757921;29;20693;-78
2023/05/29 04:45:15;;;;;;;;;;;16.90;91.60;;;;;;4756186;29;19945;-77
2023/05/29 04:47:43;;;;;;;;;;;17.00;91.40;;;;;;4758085;29;20850;-77
2023/05/29 04:50:16;;;;;;;;;;;17.00;91.20;;;;;;4776104;29;19937;-77
2023/05/29 04:52:44;;;;;;;;;;;17.00;91.10;;;;;;4777128;29;20040;-77
2023/05/29 04:55:11;;;;;;;;;;;17.10;91.10;;;;;;4759436;29;19943;-78
2023/05/29 04:57:42;;;;;;;;;;;17.00;91.10;;;;;;4763725;29;20357;-79
2023/05/29 05:00:13;;;;;;;;;;;17.10;91.00;;;;;;4775514;29;20021;-77
2023/05/29 05:02:44;;;;;;;;;;;17.10;91.00;;;;;;4753860;29;19937;-78
2023/05/29 05:05:12;;;;;;;;;;;17.20;91.10;;;;;;4756416;29;20697;-78
2023/05/29 05:07:40;;;;;;;;;;;17.30;91.00;;;;;;4753525;29;20810;-77
2023/05/29 05:10:07;;;;;;;;;;;17.30;90.80;;;;;;4765573;29;20267;-78
2023/05/29 05:12:35;;;;;;;;;;;17.40;90.70;;;;;;4766681;29;19944;-78
2023/05/29 05:15:02;;;;;;;;;;;17.40;90.80;;;;;;4748396;29;19937;-78
2023/05/29 05:17:30;;;;;;;;;;;17.40;90.70;;;;;;4749634;29;19993;-78
2023/05/29 05:19:57;;;;;;;;;;;17.50;90.70;;;;;;4752537;29;20027;-77
2023/05/29 05:22:24;;;;;;;;;;;17.40;90.60;;;;;;4754571;29;20417;-78
2023/05/29 05:24:53;;;;;;;;;;;17.40;90.60;;;;;;4777080;29;20621;-77
2023/05/29 05:27:20;;;;;;;;;;;17.80;90.30;;;;;;4770652;29;20495;-78
2023/05/29 05:29:47;;;;;;;;;;;17.70;90.00;;;;;;4750610;29;19937;-77
2023/05/29 05:32:14;;;;;;;;;;;17.90;90.10;;;;;;4770047;29;20423;-78
2023/05/29 05:34:41;;;;;;;;;;;18.00;89.30;;;;;;4749907;29;19936;-77
2023/05/29 05:37:09;;;;;;;;;;;18.30;88.60;;;;;;4754633;29;19937;-77
2023/05/29 05:39:39;;;;;;;;;;;18.50;87.50;;;;;;4767669;29;20851;-77
2023/05/29 05:42:07;;;;;;;;;;;18.60;87.10;;;;;;4731445;29;20712;-76
2023/05/29 05:44:48;;;;;;;;;;;18.50;86.70;;;;;;4752094;29;20736;-77
2023/05/29 05:47:15;;;;;;;;;;;18.30;87.10;;;;;;4760679;29;20489;-77
2023/05/29 05:49:43;;;;;;;;;;;18.30;87.20;;;;;;4750024;29;19976;-78
2023/05/29 05:52:10;;;;;;;;;;;18.30;88.00;;;;;;4778953;29;20036;-77
2023/05/29 05:54:38;;;;;;;;;;;18.30;88.50;;;;;;4755357;29;22363;-78
2023/05/29 05:57:07;;;;;;;;;;;18.30;88.60;;;;;;4768260;29;20076;-78
2023/05/29 05:59:36;;;;;;;;;;;18.30;88.60;;;;;;4754307;29;19944;-77
2023/05/29 06:02:04;;;;;;;;;;;19.10;89.30;;;;;;4768336;29;19936;-78
2023/05/29 06:04:35;;;;;;;;;;;18.50;88.60;;;;;;4769138;29;19937;-78
2023/05/29 06:07:02;;;;;;;;;;;18.50;87.60;;;;;;4755940;29;20080;-78
2023/05/29 06:09:29;;;;;;;;;;;18.60;87.90;;;;;;4775206;29;22088;-78
2023/05/29 06:11:56;;;;;;;;;;;18.80;86.90;;;;;;4758529;29;19955;-77
2023/05/29 06:14:24;;;;;;;;;;;18.80;87.20;;;;;;4775803;29;19937;-78
2023/05/29 06:16:53;;;;;;;;;;;18.70;87.60;;;;;;4758254;29;19988;-77
2023/05/29 06:19:20;;;;;;;;;;;18.80;87.80;;;;;;4759417;29;23298;-78
2023/05/29 06:21:59;;;;;;;;;;;18.80;88.00;;;;;;4761663;29;20035;-79
2023/05/29 06:24:29;;;;;;;;;;;18.80;88.00;;;;;;4772867;29;20377;-78
2023/05/29 06:26:56;;;;;;;;;;;18.90;87.60;;;;;;4757861;29;20407;-78
2023/05/29 06:29:23;;;;;;;;;;;18.90;88.60;;;;;;4764581;29;19971;-78
2023/05/29 06:31:51;;;;;;;;;;;19.00;88.60;;;;;;4775176;29;19937;-78
2023/05/29 06:34:18;;;;;;;;;;;19.10;88.50;;;;;;4775800;29;19937;-77
2023/05/29 06:36:46;;;;;;;;;;;19.20;88.10;;;;;;4777330;29;19972;-79
2023/05/29 06:39:13;;;;;;;;;;;19.40;88.40;;;;;;4778353;29;19936;-79
2023/05/29 06:41:41;;;;;;;;;;;20.00;87.30;;;;;;4765187;29;19975;-78
2023/05/29 06:44:08;;;;;;;;;;;20.30;86.00;;;;;;4757344;29;20067;-78
2023/05/29 06:46:35;;;;;;;;;;;20.30;84.60;;;;;;4753493;29;19988;-78
2023/05/29 06:49:02;;;;;;;;;;;20.30;85.10;;;;;;4757528;29;19951;-77
2023/05/29 06:51:33;;;;;;;;;;;20.20;84.10;;;;;;4746109;29;19980;-77
2023/05/29 06:54:03;;;;;;;;;;;20.20;85.90;;;;;;4784546;29;20427;-77
2023/05/29 06:56:32;;;;;;;;;;;20.30;84.60;;;;;;4758531;29;19937;-78
2023/05/29 06:58:59;;;;;;;;;;;20.30;83.50;;;;;;4783403;29;20019;-79
2023/05/29 07:01:29;;;;;;;;;;;20.40;82.90;;;;;;4784016;29;19940;-79
2023/05/29 07:04:02;;;;;;;;;;;20.40;83.10;;;;;;4787707;29;19937;-79
2023/05/29 07:06:30;;;;;;;;;;;20.50;81.60;;;;;;4788046;29;19929;-77
2023/05/29 07:08:58;;;;;;;;;;;20.50;81.10;;;;;;4742573;30;20077;-77
2023/05/29 07:11:28;;;;;;;;;;;20.40;80.40;;;;;;4733937;29;19937;-78
2023/05/29 07:13:55;;;;;;;;;;;20.50;80.50;;;;;;4734352;29;22806;-78
2023/05/29 07:16:25;;;;;;;;;;;20.90;80.10;;;;;;4738878;29;19937;-77
2023/05/29 07:18:57;;;;;;;;;;;21.00;79.60;;;;;;4739947;29;19955;-76
2023/05/29 07:21:25;;;;;;;;;;;20.80;80.30;;;;;;4740777;29;20048;-76
2023/05/29 07:23:53;;;;;;;;;;;20.80;80.70;;;;;;4748376;29;19964;-77
2023/05/29 07:26:22;;;;;;;;;;;20.70;79.10;;;;;;4736986;29;20730;-77
2023/05/29 07:28:50;;;;;;;;;;;20.80;79.20;;;;;;4737162;29;20602;-77
2023/05/29 07:31:17;;;;;;;;;;;21.20;77.60;;;;;;4738443;29;19938;-77
2023/05/29 07:33:45;;;;;;;;;;;21.30;78.40;;;;;;4733340;29;20340;-77
2023/05/29 07:36:15;;;;;;;;;;;21.50;78.30;;;;;;4734536;29;20615;-77
2023/05/29 07:38:42;;;;;;;;;;;21.50;79.00;;;;;;4737848;29;19938;-78
2023/05/29 07:41:10;;;;;;;;;;;21.60;78.90;;;;;;4760653;29;20018;-77
2023/05/29 07:43:38;;;;;;;;;;;21.60;79.60;;;;;;4788554;29;20496;-76
2023/05/29 07:46:08;;;;;;;;;;;21.60;78.30;;;;;;4779924;29;19936;-78
2023/05/29 07:48:38;;;;;;;;;;;21.20;77.40;;;;;;4780079;29;19943;-78
2023/05/29 07:51:09;;;;;;;;;;;21.00;79.00;;;;;;4790182;29;19929;-77
2023/05/29 07:53:39;;;;;;;;;;;20.90;79.90;;;;;;4764601;29;20008;-77
2023/05/29 07:56:07;;;;;;;;;;;20.90;80.80;;;;;;4756524;29;20071;-77
2023/05/29 07:58:34;;;;;;;;;;;20.80;80.50;;;;;;4735740;29;20009;-78
2023/05/29 08:01:01;;;;;;;;;;;20.70;80.80;;;;;;4755206;29;19993;-78
2023/05/29 08:03:28;;;;;;;;;;;20.60;80.60;;;;;;4770638;29;19944;-77
2023/05/29 08:06:34;;;;;;;;;;;20.60;81.10;;;;;;4700386;30;20103;-78
2023/05/29 08:09:02;;;;;;;;;;;20.60;81.60;;;;;;4764757;29;20382;-77
2023/05/29 08:11:29;;;;;;;;;;;20.60;81.50;;;;;;4782703;29;20793;-78
2023/05/29 08:13:56;;;;;;;;;;;20.50;82.60;;;;;;4779486;29;19962;-79
2023/05/29 08:16:24;;;;;;;;;;;20.50;82.10;;;;;;4762248;29;19936;-78
2023/05/29 08:18:51;;;;;;;;;;;20.50;82.10;;;;;;4771265;29;19944;-78
2023/05/29 08:21:18;;;;;;;;;;;20.40;82.50;;;;;;4780858;29;19961;-77
2023/05/29 08:23:45;;;;;;;;;;;20.40;82.70;;;;;;4781502;29;20298;-79
2023/05/29 08:26:13;;;;;;;;;;;20.30;82.90;;;;;;4773036;29;20150;-78
2023/05/29 08:28:40;;;;;;;;;;;20.30;82.70;;;;;;4756153;29;19947;-79
2023/05/29 08:31:08;;;;;;;;;;;20.30;83.10;;;;;;4765959;29;19940;-79
2023/05/29 08:33:36;;;;;;;;;;;20.30;83.40;;;;;;4756969;29;20097;-78
2023/05/29 08:36:03;;;;;;;;;;;20.20;83.00;;;;;;4775760;29;22870;-77
2023/05/29 08:38:30;;;;;;;;;;;20.20;85.20;;;;;;4753938;29;19934;-78
2023/05/29 08:40:58;;;;;;;;;;;20.20;86.50;;;;;;4775617;29;20077;-77
2023/05/29 08:43:27;;;;;;;;;;;20.30;86.80;;;;;;4772369;29;23678;-79
2023/05/29 08:45:56;;;;;;;;;;;20.40;87.50;;;;;;4768037;29;22329;-78
2023/05/29 08:48:26;;;;;;;;;;;20.40;86.70;;;;;;4752529;29;20047;-77
2023/05/29 08:50:57;;;;;;;;;;;20.50;86.40;;;;;;4756972;29;20223;-78
2023/05/29 08:53:25;;;;;;;;;;;20.60;85.20;;;;;;4752701;29;20562;-78
2023/05/29 08:55:52;;;;;;;;;;;20.60;85.50;;;;;;4776910;29;20357;-76
2023/05/29 08:58:25;;;;;;;;;;;20.60;84.50;;;;;;4770749;29;20043;-77
2023/05/29 09:00:53;;;;;;;;;;;20.70;85.50;;;;;;4752040;29;19936;-77
2023/05/29 09:03:21;;;;;;;;;;;20.70;84.30;;;;;;4757571;29;20038;-78
2023/05/29 09:05:49;;;;;;;;;;;20.70;84.80;;;;;;4760434;29;20736;-78
2023/05/29 09:08:16;;;;;;;;;;;20.70;85.00;;;;;;4779142;29;22258;-78
2023/05/29 09:10:44;;;;;;;;;;;20.70;85.10;;;;;;4774817;29;19937;-77
2023/05/29 09:13:12;;;;;;;;;;;20.60;84.70;;;;;;4776899;29;22246;-77
2023/05/29 09:15:42;;;;;;;;;;;20.50;84.60;;;;;;4755882;29;19944;-77
2023/05/29 09:18:11;;;;;;;;;;;20.40;85.10;;;;;;4772177;29;19940;-77
2023/05/29 09:20:38;;;;;;;;;;;20.30;85.40;;;;;;4776440;29;19936;-77
2023/05/29 09:23:07;;;;;;;;;;;20.40;86.10;;;;;;4768910;29;20076;-77
2023/05/29 09:25:36;;;;;;;;;;;20.30;86.00;;;;;;4755549;29;19937;-76
2023/05/29 09:28:05;;;;;;;;;;;20.30;87.00;;;;;;4788151;29;19937;-77
2023/05/29 09:30:34;;;;;;;;;;;20.30;86.50;;;;;;4800280;29;19936;-76
2023/05/29 09:33:08;;;;;;;;;;;20.30;87.40;;;;;;4802923;29;19977;-77
2023/05/29 09:35:36;;;;;;;;;;;20.40;87.80;;;;;;4772585;29;19936;-77
2023/05/29 09:38:04;;;;;;;;;;;20.40;87.90;;;;;;4766720;29;19937;-77
2023/05/29 09:40:32;;;;;;;;;;;20.40;88.60;;;;;;4748279;29;19928;-79
2023/05/29 09:43:09;;;;;;;;;;;20.40;89.30;;;;;;4778499;29;20270;-77
2023/05/29 09:45:37;;;;;;;;;;;20.40;89.70;;;;;;4747539;29;19937;-79
2023/05/29 09:48:05;;;;;;;;;;;20.40;90.10;;;;;;4762239;29;20476;-79
2023/05/29 09:50:33;;;;;;;;;;;20.40;90.50;;;;;;4779001;29;19937;-79
2023/05/29 09:53:01;;;;;;;;;;;20.40;90.50;;;;;;4779095;29;19937;-79
2023/05/29 09:55:30;;;;;;;;;;;20.40;90.30;;;;;;4776176;29;19952;-79
2023/05/29 09:57:57;;;;;;;;;;;20.30;90.00;;;;;;4771522;29;19937;-79
2023/05/29 10:00:24;;;;;;;;;;;20.40;90.30;;;;;;4778698;29;20350;-78
2023/05/29 10:02:52;;;;;;;;;;;20.40;90.70;;;;;;4762949;29;20003;-79
2023/05/29 10:05:21;;;;;;;;;;;20.50;90.40;;;;;;4757537;29;19937;-79
2023/05/29 10:07:49;;;;;;;;;;;20.50;90.40;;;;;;4777828;29;19944;-79
2023/05/29 10:10:18;;;;;;;;;;;20.50;90.20;;;;;;4773378;29;20633;-79
2023/05/29 10:12:47;;;;;;;;;;;20.60;90.00;;;;;;4775671;29;20790;-78
2023/05/29 10:15:16;;;;;;;;;;;20.50;88.30;;;;;;4774630;29;20011;-79
2023/05/29 10:17:53;;;;;;;;;;;20.50;88.60;;;;;;4759219;29;20357;-79
2023/05/29 10:20:21;;;;;;;;;;;20.60;89.30;;;;;;4776231;29;20733;-79
2023/05/29 10:22:50;;;;;;;;;;;20.70;89.60;;;;;;4757030;29;20016;-79
2023/05/29 10:25:21;;;;;;;;;;;20.70;89.80;;;;;;4765732;29;20548;-79
2023/05/29 10:27:48;;;;;;;;;;;20.80;90.10;;;;;;4782362;29;20633;-78
2023/05/29 10:30:51;;;;;;;;;;;20.90;90.40;;;;;;4766107;29;19986;-77
2023/05/29 10:33:26;;;;;;;;;;;20.90;90.00;;;;;;4749736;29;19937;-79
2023/05/29 10:36:01;;;;;;;;;;;20.90;89.30;;;;;;4775500;29;19937;-79
2023/05/29 10:38:28;;;;;;;;;;;20.90;89.30;;;;;;4776910;29;19944;-77
2023/05/29 10:41:16;;;;;;;;;;;21.00;90.10;;;;;;4753343;29;20499;-78
2023/05/29 10:43:44;;;;;;;;;;;21.00;90.00;;;;;;4754313;29;19936;-79
2023/05/29 10:46:11;;;;;;;;;;;21.10;90.10;;;;;;4775669;29;20321;-79
2023/05/29 10:48:39;;;;;;;;;;;21.10;89.50;;;;;;4771080;29;19937;-79
2023/05/29 10:51:10;;;;;;;;;;;21.10;90.20;;;;;;4753025;29;19960;-78
2023/05/29 10:53:40;;;;;;;;;;;21.20;89.40;;;;;;4778734;29;20072;-79
2023/05/29 10:56:08;;;;;;;;;;;21.20;89.10;;;;;;4756993;29;19937;-79
2023/05/29 10:58:35;;;;;;;;;;;21.20;89.00;;;;;;4785650;29;19982;-79
2023/05/29 11:01:03;;;;;;;;;;;21.20;88.40;;;;;;4775764;29;19937;-79
2023/05/29 11:03:31;;;;;;;;;;;21.20;88.90;;;;;;4758654;29;20377;-78
2023/05/29 11:06:05;;;;;;;;;;;21.20;88.80;;;;;;4776539;29;19937;-79
2023/05/29 11:08:45;;;;;;;;;;;21.30;90.30;;;;;;4768170;29;19933;-78
2023/05/29 11:11:28;;;;;;;;;;;21.40;90.40;;;;;;4773131;29;20075;-79
2023/05/29 11:13:56;;;;;;;;;;;21.60;90.20;;;;;;4774704;29;19937;-79
2023/05/29 11:16:23;;;;;;;;;;;21.70;91.10;;;;;;4784107;29;19937;-79
2023/05/29 11:18:51;;;;;;;;;;;21.90;92.50;;;;;;4760417;29;21092;-79
2023/05/29 11:21:18;;;;;;;;;;;22.00;92.90;;;;;;4771768;29;20302;-79
2023/05/29 11:23:47;;;;;;;;;;;22.20;92.90;;;;;;4756036;29;19937;-79
2023/05/29 11:26:16;;;;;;;;;;;22.20;93.30;;;;;;4780027;29;19944;-78
2023/05/29 11:28:43;;;;;;;;;;;22.20;91.90;;;;;;4761290;29;19941;-78
2023/05/29 11:31:11;;;;;;;;;;;22.20;91.20;;;;;;4783883;29;22299;-79
2023/05/29 11:33:41;;;;;;;;;;;22.30;92.10;;;;;;4763043;29;20512;-79
2023/05/29 11:36:08;;;;;;;;;;;22.30;92.10;;;;;;4762599;29;20698;-79
2023/05/29 11:38:35;;;;;;;;;;;22.30;92.00;;;;;;4776979;29;19937;-79
2023/05/29 11:41:03;;;;;;;;;;;22.20;92.20;;;;;;4760551;29;19929;-79
2023/05/29 11:43:31;;;;;;;;;;;22.30;93.30;;;;;;4774964;29;19936;-79
2023/05/29 11:45:58;;;;;;;;;;;22.30;93.10;;;;;;4762801;29;19937;-79
2023/05/29 11:48:25;;;;;;;;;;;22.10;92.50;;;;;;4778476;29;19937;-78
2023/05/29 11:50:52;;;;;;;;;;;22.00;93.10;;;;;;4776262;29;19938;-78
2023/05/29 11:53:19;;;;;;;;;;;22.00;92.70;;;;;;4756979;29;20317;-78
2023/05/29 11:55:46;;;;;;;;;;;22.00;93.10;;;;;;4753766;29;19944;-79
2023/05/29 11:58:14;;;;;;;;;;;22.10;93.70;;;;;;4756719;29;20632;-79
2023/05/29 12:00:42;;;;;;;;;;;22.10;93.50;;;;;;4773334;29;20342;-77
2023/05/29 12:03:11;;;;;;;;;;;22.10;93.20;;;;;;4753800;29;21059;-78
2023/05/29 12:05:45;;;;;;;;;;;22.20;92.70;;;;;;4772261;29;19937;-79
2023/05/29 12:08:12;;;;;;;;;;;22.40;92.50;;;;;;4775751;29;19944;-79
2023/05/29 12:10:47;;;;;;;;;;;22.60;92.10;;;;;;4774816;29;19963;-78
2023/05/29 12:13:16;;;;;;;;;;;22.70;91.40;;;;;;4771045;29;20126;-78
2023/05/29 12:15:44;;;;;;;;;;;22.80;91.10;;;;;;4772830;29;22192;-78
2023/05/29 12:18:11;;;;;;;;;;;22.80;88.00;;;;;;4773960;29;19945;-79
2023/05/29 12:20:38;;;;;;;;;;;22.70;92.20;;;;;;4756606;29;19956;-79
2023/05/29 12:23:05;;;;;;;;;;;22.50;93.00;;;;;;4779484;29;20637;-79
2023/05/29 12:25:36;;;;;;;;;;;22.50;91.60;;;;;;4761227;29;19937;-78
2023/05/29 12:28:04;;;;;;;;;;;22.40;90.50;;;;;;4750058;29;20193;-78
2023/05/29 12:30:31;;;;;;;;;;;22.30;91.00;;;;;;4776458;29;19972;-78
2023/05/29 12:33:01;;;;;;;;;;;22.30;90.30;;;;;;4787248;29;20048;-78
2023/05/29 12:35:29;;;;;;;;;;;22.40;90.10;;;;;;4760949;29;19933;-78
2023/05/29 12:37:56;;;;;;;;;;;22.40;88.00;;;;;;4778040;29;20086;-78
2023/05/29 12:40:24;;;;;;;;;;;22.50;90.50;;;;;;4776872;29;19943;-79
2023/05/29 12:42:57;;;;;;;;;;;22.60;91.00;;;;;;4758715;29;19944;-79
2023/05/29 12:45:28;;;;;;;;;;;22.60;90.30;;;;;;4790137;29;20357;-79
2023/05/29 12:47:56;;;;;;;;;;;22.60;89.70;;;;;;4777511;29;20011;-79
2023/05/29 12:50:27;;;;;;;;;;;22.70;88.80;;;;;;4786240;29;19937;-79
2023/05/29 12:52:54;;;;;;;;;;;22.80;88.70;;;;;;4755732;29;21186;-78
2023/05/29 12:55:22;;;;;;;;;;;22.70;85.10;;;;;;4773779;29;19937;-78
2023/05/29 12:57:49;;;;;;;;;;;22.80;86.50;;;;;;4771474;29;19963;-79
2023/05/29 13:00:18;;;;;;;;;;;22.90;88.40;;;;;;4759639;29;20729;-78
2023/05/29 13:02:49;;;;;;;;;;;23.00;86.00;;;;;;4757096;29;19938;-78
2023/05/29 13:05:18;;;;;;;;;;;23.00;83.60;;;;;;4761173;29;20421;-79
2023/05/29 13:07:52;;;;;;;;;;;23.00;85.00;;;;;;4756583;29;19940;-77
2023/05/29 13:10:19;;;;;;;;;;;22.90;83.40;;;;;;4754497;29;20530;-78
2023/05/29 13:12:48;;;;;;;;;;;22.90;85.50;;;;;;4760828;29;19937;-77
2023/05/29 13:15:15;;;;;;;;;;;23.00;84.50;;;;;;4769527;29;19937;-77
2023/05/29 13:17:43;;;;;;;;;;;22.70;82.00;;;;;;4771195;29;19990;-78
2023/05/29 13:20:12;;;;;;;;;;;22.80;82.50;;;;;;4753837;29;20707;-79
2023/05/29 13:22:40;;;;;;;;;;;22.80;84.80;;;;;;4773140;29;19944;-78
2023/05/29 13:25:09;;;;;;;;;;;22.80;83.70;;;;;;4779542;29;19937;-79
2023/05/29 13:27:37;;;;;;;;;;;23.00;83.60;;;;;;4752383;29;19937;-78
2023/05/29 13:30:05;;;;;;;;;;;23.00;83.60;;;;;;4755009;29;19976;-79
2023/05/29 13:32:32;;;;;;;;;;;23.10;82.10;;;;;;4754300;29;19937;-77
2023/05/29 13:34:59;;;;;;;;;;;23.10;81.50;;;;;;4755137;29;19936;-79
2023/05/29 13:37:29;;;;;;;;;;;23.10;80.30;;;;;;4756796;29;20032;-79
2023/05/29 13:39:56;;;;;;;;;;;23.10;80.20;;;;;;4754603;29;19941;-79
2023/05/29 13:42:23;;;;;;;;;;;23.10;80.80;;;;;;4765031;29;20128;-79
2023/05/29 13:44:50;;;;;;;;;;;23.00;79.20;;;;;;4753951;29;20111;-78
2023/05/29 13:47:18;;;;;;;;;;;23.10;80.10;;;;;;4753125;29;19944;-79
2023/05/29 13:49:45;;;;;;;;;;;23.10;80.80;;;;;;4751890;29;20425;-79
2023/05/29 13:52:12;;;;;;;;;;;23.20;81.30;;;;;;4760661;29;20047;-79
2023/05/29 13:54:39;;;;;;;;;;;23.20;80.90;;;;;;4787848;29;20174;-80
2023/05/29 13:57:06;;;;;;;;;;;23.20;78.60;;;;;;4757443;29;19937;-80
2023/05/29 13:59:34;;;;;;;;;;;23.20;77.70;;;;;;4764223;29;20320;-78
2023/05/29 14:02:02;;;;;;;;;;;23.20;77.60;;;;;;4787020;29;19981;-80
2023/05/29 14:04:29;;;;;;;;;;;23.20;76.40;;;;;;4763630;29;21259;-80
2023/05/29 14:06:57;;;;;;;;;;;23.20;76.60;;;;;;4774925;29;20429;-79
2023/05/29 14:09:27;;;;;;;;;;;23.10;74.70;;;;;;4784201;29;19944;-79
2023/05/29 14:11:55;;;;;;;;;;;23.10;76.40;;;;;;4784828;29;19937;-79
2023/05/29 14:14:22;;;;;;;;;;;23.20;76.50;;;;;;4792284;29;20691;-80
2023/05/29 14:16:50;;;;;;;;;;;23.20;75.30;;;;;;4789534;29;20141;-79
2023/05/29 14:19:18;;;;;;;;;;;23.20;76.70;;;;;;4769494;29;19937;-80
2023/05/29 14:21:45;;;;;;;;;;;23.40;76.60;;;;;;4779532;29;20374;-79
2023/05/29 14:24:13;;;;;;;;;;;23.50;74.90;;;;;;4753944;29;20390;-78